Time;durP1;ratioP1;P1;durP2;ratioP2;P2;SDS_P1;SDS_P2;PMS_P1;PMS_P2;Temp;Humidity;BMP_temperature;BMP_pressure;BME280_temperature;BME280_humidity;BME280_pressure;Samples;Min_cycle;Max_cycle;Signal;HPM_P1;HPM_P2
2022/09/04 00:01:20;;;;;;;;;;;;;;;19.13;58.28;100110.88;4369080;32;38712;-79
2022/09/04 00:04:07;;;;;;;;;;;;;;;19.23;57.57;100116.84;4381932;32;38785;-79
2022/09/04 00:06:37;;;;;;;;;;;;;;;19.37;56.91;100120.16;4381404;32;37793;-79
2022/09/04 00:09:07;;;;;;;;;;;;;;;19.23;58.00;100116.84;4381704;32;38555;-79
2022/09/04 00:11:44;;;;;;;;;;;;;;;19.49;56.73;100109.44;4369877;32;37325;-79
2022/09/04 00:14:13;;;;;;;;;;;;;;;19.28;57.69;100112.41;4368049;32;39616;-79
2022/09/04 00:16:42;;;;;;;;;;;;;;;19.16;57.89;100115.22;4365515;32;36932;-79
2022/09/04 00:19:15;;;;;;;;;;;;;;;19.21;58.11;100113.41;4371887;32;37462;-79
2022/09/04 00:21:44;;;;;;;;;;;;;;;19.32;57.68;100115.84;4366502;32;38805;-80
2022/09/04 00:24:18;;;;;;;;;;;;;;;19.36;57.76;100117.53;4367530;32;38922;-79
2022/09/04 00:26:51;;;;;;;;;;;;;;;19.22;58.07;100120.38;4362862;32;37852;-79
2022/09/04 00:29:47;;;;;;;;;;;;;;;19.40;57.47;100125.34;4373634;32;38942;-80
2022/09/04 00:32:18;;;;;;;;;;;;;;;19.45;57.35;100131.38;4366132;32;38903;-79
2022/09/04 00:35:03;;;;;;;;;;;;;;;19.48;57.75;100128.72;4368851;32;37494;-79
2022/09/04 00:37:32;;;;;;;;;;;;;;;19.53;57.94;100136.53;4367646;32;36894;-79
2022/09/04 00:40:05;;;;;;;;;;;;;;;19.13;60.02;100125.75;4366083;32;37806;-79
2022/09/04 00:42:42;;;;;;;;;;;;;;;19.37;58.66;100125.41;4366363;32;39596;-79
2022/09/04 00:45:26;;;;;;;;;;;;;;;19.28;58.66;100130.78;4367489;32;39118;-79
2022/09/04 00:47:57;;;;;;;;;;;;;;;19.39;58.58;100128.84;4369471;32;37046;-79
2022/09/04 00:50:27;;;;;;;;;;;;;;;19.49;58.42;100130.44;4364881;32;39467;-79
2022/09/04 00:53:12;;;;;;;;;;;;;;;19.71;58.06;100130.12;4373364;32;40091;-79
2022/09/04 00:55:39;;;;;;;;;;;;;;;19.76;57.80;100133.56;4367985;32;38742;-79
2022/09/04 00:58:09;;;;;;;;;;;;;;;19.37;59.48;100130.66;4369530;32;37648;-79
2022/09/04 01:00:37;;;;;;;;;;;;;;;19.61;58.45;100128.53;4369594;32;38098;-79
2022/09/04 01:03:19;;;;;;;;;;;;;;;19.94;57.22;100122.75;4370792;32;37986;-79
2022/09/04 01:05:51;;;;;;;;;;;;;;;19.77;57.45;100130.03;4354572;32;38895;-79
2022/09/04 01:08:39;;;;;;;;;;;;;;;19.83;57.45;100123.81;4363282;32;38135;-79
2022/09/04 01:11:19;;;;;;;;;;;;;;;19.91;57.06;100121.91;4367331;32;39210;-80
2022/09/04 01:13:46;;;;;;;;;;;;;;;19.91;57.04;100121.91;4369724;32;37932;-80
2022/09/04 01:16:15;;;;;;;;;;;;;;;19.79;58.08;100133.50;4368663;32;39953;-80
2022/09/04 01:19:00;;;;;;;;;;;;;;;20.02;56.92;100134.88;4366475;32;36791;-79
2022/09/04 01:21:45;;;;;;;;;;;;;;;19.92;57.04;100127.16;4371891;32;37931;-81
2022/09/04 01:24:29;;;;;;;;;;;;;;;19.98;56.96;100134.91;4384043;32;39124;-80
2022/09/04 01:27:06;;;;;;;;;;;;;;;19.92;57.29;100140.28;4363731;32;38792;-80
2022/09/04 01:30:04;;;;;;;;;;;;;;;19.63;58.41;100153.00;4359132;32;36868;-80
2022/09/04 01:33:07;;;;;;;;;;;;;;;19.94;57.67;100149.03;4352754;32;37915;-79
2022/09/04 01:35:47;;;;;;;;;;;;;;;19.98;57.61;100155.94;4321865;33;37590;-79
2022/09/04 01:38:14;;;;;;;;;;;;;;;19.81;58.09;100152.72;4347844;32;39271;-79
2022/09/04 01:40:52;;;;;;;;;;;;;;;20.00;57.56;100145.37;4354088;32;36688;-79
2022/09/04 01:43:20;;;;;;;;;;;;;;;19.96;57.58;100151.59;4367383;32;49601;-79
2022/09/04 01:46:07;;;;;;;;;;;;;;;19.94;58.13;100170.03;4355762;32;38913;-79
2022/09/04 01:48:37;;;;;;;;;;;;;;;20.17;56.96;100161.75;4369361;32;38817;-80
2022/09/04 01:51:07;;;;;;;;;;;;;;;20.14;57.29;100160.94;4371184;32;38272;-80
2022/09/04 01:53:35;;;;;;;;;;;;;;;20.17;57.32;100166.13;4369005;32;39186;-80
2022/09/04 01:56:11;;;;;;;;;;;;;;;20.27;56.54;100157.19;4362058;32;37933;-79
2022/09/04 01:58:44;;;;;;;;;;;;;;;20.15;56.93;100155.63;4353225;32;39696;-79
2022/09/04 02:01:21;;;;;;;;;;;;;;;20.11;56.88;100161.00;4354355;32;38243;-79
2022/09/04 02:03:56;;;;;;;;;;;;;;;19.96;57.98;100155.09;4371839;32;36984;-79
2022/09/04 02:06:31;;;;;;;;;;;;;;;19.97;58.04;100164.72;4369484;32;38445;-79
2022/09/04 02:09:10;;;;;;;;;;;;;;;20.10;57.53;100154.88;4367576;32;38382;-79
2022/09/04 02:11:39;;;;;;;;;;;;;;;20.18;56.86;100157.34;4370858;32;37267;-79
2022/09/04 02:14:26;;;;;;;;;;;;;;;20.10;57.58;100153.97;4353118;32;38782;-79
2022/09/04 02:16:55;;;;;;;;;;;;;;;20.00;57.71;100162.91;4363002;32;38401;-79
2022/09/04 02:19:41;;;;;;;;;;;;;;;20.04;57.68;100154.09;4368972;32;39101;-79
2022/09/04 02:22:27;;;;;;;;;;;;;;;19.85;58.21;100164.94;4365741;32;36834;-79
2022/09/04 02:24:54;;;;;;;;;;;;;;;19.69;58.72;100160.84;4360430;32;38808;-79
2022/09/04 02:27:51;;;;;;;;;;;;;;;19.79;58.16;100159.78;4353355;32;38241;-79
2022/09/04 02:30:19;;;;;;;;;;;;;;;19.82;58.12;100159.72;4352640;32;38260;-79
2022/09/04 02:33:13;;;;;;;;;;;;;;;19.74;58.26;100166.84;4361457;32;36956;-80
2022/09/04 02:36:02;;;;;;;;;;;;;;;19.72;58.23;100171.28;4352524;32;37663;-80
2022/09/04 02:38:48;;;;;;;;;;;;;;;19.76;58.11;100170.34;4353810;32;37929;-80
2022/09/04 02:41:22;;;;;;;;;;;;;;;19.77;58.23;100171.19;4360659;32;39093;-80
2022/09/04 02:44:10;;;;;;;;;;;;;;;19.57;58.99;100166.25;4355375;32;37237;-80
2022/09/04 02:47:04;;;;;;;;;;;;;;;19.76;58.34;100165.09;4360749;32;38875;-80
2022/09/04 02:49:31;;;;;;;;;;;;;;;19.70;58.36;100165.19;4354952;32;37441;-80
2022/09/04 02:52:14;;;;;;;;;;;;;;;19.63;58.34;100158.25;4361121;32;39110;-80
2022/09/04 02:54:51;;;;;;;;;;;;;;;19.55;58.84;100165.38;4353611;32;38004;-79
2022/09/04 02:57:38;;;;;;;;;;;;;;;19.55;58.86;100168.00;4352149;32;39183;-79
2022/09/04 03:00:18;;;;;;;;;;;;;;;19.64;58.21;100170.53;4362098;32;38009;-80
2022/09/04 03:03:01;;;;;;;;;;;;;;;19.47;59.15;100168.12;4356249;32;40027;-80
2022/09/04 03:05:30;;;;;;;;;;;;;;;19.36;59.19;100167.41;4358005;32;37969;-80
2022/09/04 03:08:15;;;;;;;;;;;;;;;19.58;58.29;100167.97;4339902;32;38521;-79
2022/09/04 03:11:00;;;;;;;;;;;;;;;19.46;58.68;100166.37;4360004;32;38367;-79
2022/09/04 03:13:36;;;;;;;;;;;;;;;19.43;58.63;100164.69;4352212;32;39831;-80
2022/09/04 03:16:24;;;;;;;;;;;;;;;19.68;57.72;100172.19;4356117;32;37324;-79
2022/09/04 03:18:55;;;;;;;;;;;;;;;19.50;58.06;100168.94;4362619;32;37900;-79
2022/09/04 03:21:43;;;;;;;;;;;;;;;19.35;58.60;100163.94;4370233;32;37591;-79
2022/09/04 03:24:13;;;;;;;;;;;;;;;19.25;58.91;100168.44;4367009;32;40166;-79
2022/09/04 03:26:43;;;;;;;;;;;;;;;19.63;57.32;100168.78;4367358;32;36920;-79
2022/09/04 03:29:22;;;;;;;;;;;;;;;19.50;57.79;100174.22;4366034;32;38163;-81
2022/09/04 03:31:57;;;;;;;;;;;;;;;19.21;58.59;100184.28;4363781;32;38898;-79
2022/09/04 03:34:43;;;;;;;;;;;;;;;19.12;59.04;100181.75;4370217;32;38351;-79
2022/09/04 03:37:32;;;;;;;;;;;;;;;19.00;59.43;100178.41;4364130;32;36682;-80
2022/09/04 03:40:11;;;;;;;;;;;;;;;19.17;58.57;100185.19;4362154;32;37918;-79
2022/09/04 03:42:46;;;;;;;;;;;;;;;19.10;58.81;100194.03;4368255;32;39116;-79
2022/09/04 03:45:17;;;;;;;;;;;;;;;19.02;59.09;100192.38;4366701;32;38807;-80
2022/09/04 03:48:04;;;;;;;;;;;;;;;18.96;59.31;100191.59;4354818;32;36760;-79
2022/09/04 03:50:38;;;;;;;;;;;;;;;19.06;58.76;100187.94;4370432;32;38054;-80
2022/09/04 03:53:20;;;;;;;;;;;;;;;19.25;57.91;100199.94;4368033;32;37721;-80
2022/09/04 03:55:54;;;;;;;;;;;;;;;19.23;57.96;100196.44;4368269;32;40216;-79
2022/09/04 03:58:25;;;;;;;;;;;;;;;19.02;58.43;100191.50;4369160;32;37457;-79
2022/09/04 04:00:58;;;;;;;;;;;;;;;18.99;58.64;100195.03;4366676;32;38357;-79
2022/09/04 04:03:30;;;;;;;;;;;;;;;19.03;58.63;100194.09;4366494;32;38202;-79
2022/09/04 04:06:23;;;;;;;;;;;;;;;19.10;58.16;100199.28;4365517;32;39628;-79
2022/09/04 04:08:51;;;;;;;;;;;;;;;19.01;58.52;100201.12;4364826;32;37683;-79
2022/09/04 04:11:33;;;;;;;;;;;;;;;19.15;58.09;100207.97;4370445;32;37891;-79
2022/09/04 04:14:21;;;;;;;;;;;;;;;19.17;57.82;100206.16;4354798;32;37864;-79
2022/09/04 04:17:07;;;;;;;;;;;;;;;18.70;59.77;100215.47;4367167;32;40041;-79
2022/09/04 04:19:50;;;;;;;;;;;;;;;18.81;59.48;100234.59;4370518;32;36555;-79
2022/09/04 04:22:23;;;;;;;;;;;;;;;18.91;59.10;100225.72;4368593;32;38860;-80
2022/09/04 04:25:10;;;;;;;;;;;;;;;18.86;59.14;100232.81;4369544;32;38931;-80
2022/09/04 04:27:47;;;;;;;;;;;;;;;18.52;60.15;100238.38;4355655;32;38689;-80
2022/09/04 04:30:15;;;;;;;;;;;;;;;18.97;58.93;100241.41;4369501;32;36581;-80
2022/09/04 04:32:49;;;;;;;;;;;;;;;19.03;58.81;100246.56;4368314;32;38240;-79
2022/09/04 04:35:19;;;;;;;;;;;;;;;18.95;59.42;100250.16;4367699;32;39219;-81
2022/09/04 04:37:59;;;;;;;;;;;;;;;18.85;59.77;100252.03;4379857;32;38610;-79
2022/09/04 04:40:38;;;;;;;;;;;;;;;18.92;59.62;100253.72;4371043;32;37312;-78
2022/09/04 04:43:18;;;;;;;;;;;;;;;19.15;59.03;100255.19;4369420;32;39051;-80
2022/09/04 04:45:51;;;;;;;;;;;;;;;19.25;59.09;100251.56;4363408;32;39960;-80
2022/09/04 04:48:37;;;;;;;;;;;;;;;19.28;59.15;100267.28;4369077;32;40912;-80
2022/09/04 04:51:07;;;;;;;;;;;;;;;19.30;59.58;100254.97;4368303;32;37622;-80
2022/09/04 04:53:38;;;;;;;;;;;;;;;19.38;59.87;100258.38;4369196;32;37773;-80
2022/09/04 04:56:26;;;;;;;;;;;;;;;19.35;60.63;100263.69;4367810;32;37837;-79
2022/09/04 04:58:59;;;;;;;;;;;;;;;19.51;59.81;100270.47;4360313;32;39270;-79
2022/09/04 05:01:33;;;;;;;;;;;;;;;19.76;59.18;100280.66;4369649;32;36666;-80
2022/09/04 05:04:11;;;;;;;;;;;;;;;19.77;59.31;100277.13;4367720;32;37629;-80
2022/09/04 05:06:40;;;;;;;;;;;;;;;19.86;59.01;100282.25;4369248;32;37654;-80
2022/09/04 05:09:17;;;;;;;;;;;;;;;19.84;59.53;100276.16;4367455;32;38995;-80
2022/09/04 05:11:47;;;;;;;;;;;;;;;19.79;60.45;100270.13;4371351;32;36933;-79
2022/09/04 05:14:29;;;;;;;;;;;;;;;19.90;60.60;100276.06;4369050;32;38188;-80
2022/09/04 05:17:16;;;;;;;;;;;;;;;19.85;59.74;100280.53;4367926;32;39001;-79
2022/09/04 05:19:53;;;;;;;;;;;;;;;20.03;59.14;100283.75;4368988;32;38581;-80
2022/09/04 05:22:21;;;;;;;;;;;;;;;20.19;59.18;100280.00;4368156;32;37049;-79
2022/09/04 05:24:58;;;;;;;;;;;;;;;20.15;59.21;100283.56;4369521;32;39083;-80
2022/09/04 05:27:40;;;;;;;;;;;;;;;20.30;58.00;100283.31;4368148;32;38564;-80
2022/09/04 05:30:09;;;;;;;;;;;;;;;20.42;57.75;100283.12;4368273;32;38525;-80
2022/09/04 05:32:52;;;;;;;;;;;;;;;20.53;57.89;100292.62;4367886;32;38603;-80
2022/09/04 05:35:49;;;;;;;;;;;;;;;20.50;58.77;100298.75;4363026;32;38146;-80
2022/09/04 05:38:39;;;;;;;;;;;;;;;20.54;58.47;100297.84;4359464;32;37899;-79
2022/09/04 05:41:25;;;;;;;;;;;;;;;20.52;58.05;100298.78;4368753;32;39010;-79
2022/09/04 05:44:13;;;;;;;;;;;;;;;20.51;59.16;100302.25;4352720;32;36729;-79
2022/09/04 05:46:43;;;;;;;;;;;;;;;20.58;58.38;100303.91;4354767;32;39017;-79
2022/09/04 05:49:17;;;;;;;;;;;;;;;20.67;58.12;100309.00;4367419;32;37922;-79
2022/09/04 05:51:50;;;;;;;;;;;;;;;20.69;57.68;100315.13;4360643;32;38740;-79
2022/09/04 05:54:24;;;;;;;;;;;;;;;20.68;58.11;100310.75;4369063;32;37186;-79
2022/09/04 05:56:59;;;;;;;;;;;;;;;20.41;57.73;100312.06;4368947;32;38279;-79
2022/09/04 05:59:40;;;;;;;;;;;;;;;20.69;57.21;100312.50;4366717;32;37869;-79
2022/09/04 06:02:29;;;;;;;;;;;;;;;20.81;56.78;100307.00;4367473;32;39534;-79
2022/09/04 06:05:20;;;;;;;;;;;;;;;20.98;56.17;100303.19;4369269;32;37182;-78
2022/09/04 06:07:56;;;;;;;;;;;;;;;20.57;57.44;100307.44;4355356;32;38691;-80
2022/09/04 06:10:42;;;;;;;;;;;;;;;20.69;57.47;100301.09;4369217;32;37720;-80
2022/09/04 06:13:10;;;;;;;;;;;;;;;20.59;57.33;100310.94;4369033;32;38942;-80
2022/09/04 06:15:40;;;;;;;;;;;;;;;20.55;57.39;100309.22;4368671;32;36827;-80
2022/09/04 06:18:31;;;;;;;;;;;;;;;20.55;57.84;100311.84;4368646;32;38775;-81
2022/09/04 06:21:06;;;;;;;;;;;;;;;20.83;56.83;100299.94;4367408;32;38267;-80
2022/09/04 06:23:37;;;;;;;;;;;;;;;21.00;56.48;100306.66;4368321;32;39028;-82
2022/09/04 06:26:17;;;;;;;;;;;;;;;20.76;56.45;100316.75;4368228;32;36734;-87
2022/09/04 06:28:51;;;;;;;;;;;;;;;20.98;56.02;100313.72;4367797;32;39342;-84
2022/09/04 06:31:18;;;;;;;;;;;;;;;20.96;56.58;100315.50;4367770;32;38926;-87
2022/09/04 06:33:58;;;;;;;;;;;;;;;21.06;56.28;100320.59;4368640;32;38809;-86
2022/09/04 06:36:35;;;;;;;;;;;;;;;21.08;55.83;100321.41;4353505;32;36465;-84
2022/09/04 06:39:21;;;;;;;;;;;;;;;21.11;55.11;100316.06;4365678;32;38843;-84
2022/09/04 06:41:53;;;;;;;;;;;;;;;21.05;55.48;100318.81;4368342;32;37820;-84
2022/09/04 06:44:29;;;;;;;;;;;;;;;21.02;55.57;100325.91;4362024;32;39054;-84
2022/09/04 06:47:16;;;;;;;;;;;;;;;21.20;55.15;100330.84;4368170;32;37890;-86
2022/09/04 06:49:46;;;;;;;;;;;;;;;21.05;54.96;100333.75;4352772;32;36922;-84
2022/09/04 06:52:22;;;;;;;;;;;;;;;20.85;56.21;100335.00;4368260;32;38500;-84
2022/09/04 06:55:06;;;;;;;;;;;;;;;21.06;54.96;100338.16;4367613;32;40028;-86
2022/09/04 06:57:53;;;;;;;;;;;;;;;21.32;54.69;100335.84;4366053;32;37094;-86
2022/09/04 07:00:21;;;;;;;;;;;;;;;21.24;54.89;100337.75;4367324;32;38128;-85
2022/09/04 07:03:10;;;;;;;;;;;;;;;21.22;54.95;100338.69;4367570;32;37773;-83
2022/09/04 07:05:48;;;;;;;;;;;;;;;21.32;55.31;100338.50;4368638;32;39054;-85
2022/09/04 07:08:19;;;;;;;;;;;;;;;21.32;55.24;100351.66;4362183;32;36758;-82
2022/09/04 07:11:05;;;;;;;;;;;;;;;21.50;54.17;100349.56;4339587;32;38233;-79
2022/09/04 07:13:36;;;;;;;;;;;;;;;21.48;54.44;100346.13;4363576;32;38144;-85
2022/09/04 07:16:15;;;;;;;;;;;;;;;21.72;53.60;100345.59;4350350;32;39090;-83
2022/09/04 07:19:02;;;;;;;;;;;;;;;21.72;53.83;100350.00;4353468;32;36506;-80
2022/09/04 07:21:29;;;;;;;;;;;;;;;21.76;53.50;100352.53;4353583;32;37936;-85
2022/09/04 07:23:57;;;;;;;;;;;;;;;21.61;54.21;100352.87;4355535;32;39069;-83
2022/09/04 07:26:43;;;;;;;;;;;;;;;21.76;54.02;100347.28;4352338;32;38803;-80
2022/09/04 07:29:28;;;;;;;;;;;;;;;21.92;53.25;100342.53;4351760;32;36873;-86
2022/09/04 07:31:55;;;;;;;;;;;;;;;21.81;53.55;100350.66;4352013;32;38823;-83
2022/09/04 07:34:38;;;;;;;;;;;;;;;21.91;53.09;100345.19;4354450;32;39084;-82
2022/09/04 07:37:09;;;;;;;;;;;;;;;22.04;53.35;100351.91;4352833;32;38849;-81
2022/09/04 07:39:52;;;;;;;;;;;;;;;21.98;52.93;100362.59;4349760;32;37155;-79
2022/09/04 07:42:26;;;;;;;;;;;;;;;21.92;52.49;100360.09;4353232;32;37969;-83
2022/09/04 07:45:04;;;;;;;;;;;;;;;22.12;51.86;100359.66;4349986;32;37587;-86
2022/09/04 07:47:54;;;;;;;;;;;;;;;22.03;52.02;100361.59;4356532;32;39647;-84
2022/09/04 07:50:22;;;;;;;;;;;;;;;22.18;51.90;100360.41;4354596;32;37991;-81
2022/09/04 07:52:55;;;;;;;;;;;;;;;21.96;52.57;100365.28;4345395;32;37372;-82
2022/09/04 07:55:51;;;;;;;;;;;;;;;22.14;52.24;100358.69;4337344;32;38069;-85
2022/09/04 07:58:30;;;;;;;;;;;;;;;21.99;53.06;100364.34;4336974;33;38795;-87
2022/09/04 08:01:05;;;;;;;;;;;;;;;22.13;52.43;100370.16;4336965;33;37863;-88
2022/09/04 08:03:48;;;;;;;;;;;;;;;22.13;52.40;100378.06;4338024;32;38161;-82
2022/09/04 08:06:26;;;;;;;;;;;;;;;22.19;51.85;100372.69;4350074;32;38203;-85
2022/09/04 08:09:08;;;;;;;;;;;;;;;22.12;52.28;100386.91;4346300;32;39550;-86
2022/09/04 08:11:52;;;;;;;;;;;;;;;22.32;52.04;100388.25;4337880;32;37838;-87
2022/09/04 08:14:22;;;;;;;;;;;;;;;22.32;52.12;100398.78;4347330;32;39751;-85
2022/09/04 08:16:49;;;;;;;;;;;;;;;22.33;51.09;100405.78;4352491;32;39898;-81
2022/09/04 08:19:26;;;;;;;;;;;;;;;22.23;52.36;100405.12;4353308;32;39201;-84
2022/09/04 08:21:53;;;;;;;;;;;;;;;22.40;50.95;100402.09;4350726;32;37228;-85
2022/09/04 08:24:40;;;;;;;;;;;;;;;22.60;50.55;100399.87;4352842;32;37829;-82
2022/09/04 08:27:08;;;;;;;;;;;;;;;22.75;50.23;100402.13;4348655;32;38855;-84
2022/09/04 08:29:41;;;;;;;;;;;;;;;22.67;50.96;100397.94;4352742;32;39638;-87
2022/09/04 08:32:27;;;;;;;;;;;;;;;22.69;50.75;100404.91;4352034;32;36524;-86
2022/09/04 08:35:23;;;;;;;;;;;;;;;22.56;50.49;100408.78;4351877;32;39242;-84
2022/09/04 08:38:10;;;;;;;;;;;;;;;22.75;49.97;100404.78;4351876;32;37956;-85
2022/09/04 08:40:50;;;;;;;;;;;;;;;22.68;50.88;100397.88;4341976;32;38615;-86
2022/09/04 08:43:21;;;;;;;;;;;;;;;22.77;49.84;100402.06;4352814;32;38291;-85
2022/09/04 08:45:51;;;;;;;;;;;;;;;22.70;49.88;100398.72;4355769;32;37770;-84
2022/09/04 08:48:21;;;;;;;;;;;;;;;22.72;50.07;100409.25;4352026;32;39493;-84
2022/09/04 08:50:55;;;;;;;;;;;;;;;22.77;50.07;100406.50;4348331;32;38830;-84
2022/09/04 08:53:34;;;;;;;;;;;;;;;22.73;49.86;100411.84;4349893;32;36762;-83
2022/09/04 08:56:08;;;;;;;;;;;;;;;22.89;49.95;100406.19;4343048;32;37930;-83
2022/09/04 08:58:36;;;;;;;;;;;;;;;22.75;50.21;100407.41;4360870;32;37202;-83
2022/09/04 09:01:21;;;;;;;;;;;;;;;22.89;50.52;100406.19;4350075;32;38974;-86
2022/09/04 09:04:04;;;;;;;;;;;;;;;22.76;52.38;100408.28;4340594;32;38284;-87
2022/09/04 09:06:50;;;;;;;;;;;;;;;22.90;49.97;100413.19;4359675;32;37936;-81
2022/09/04 09:09:27;;;;;;;;;;;;;;;22.86;50.61;100406.25;4350518;32;36968;-84
2022/09/04 09:12:07;;;;;;;;;;;;;;;22.97;50.11;100409.50;4352010;32;38401;-88
2022/09/04 09:14:52;;;;;;;;;;;;;;;22.95;50.23;100406.06;4351476;32;38138;-88
2022/09/04 09:17:32;;;;;;;;;;;;;;;22.99;49.81;100413.00;4350503;32;38150;-82
2022/09/04 09:20:16;;;;;;;;;;;;;;;23.09;50.14;100414.47;4352353;32;38350;-80
2022/09/04 09:23:05;;;;;;;;;;;;;;;23.16;49.87;100418.69;4350643;32;39160;-78
2022/09/04 09:25:41;;;;;;;;;;;;;;;23.17;50.15;100414.31;4346398;32;38970;-85
2022/09/04 09:28:46;;;;;;;;;;;;;;;22.98;50.56;100419.19;4352286;32;37972;-84
2022/09/04 09:31:15;;;;;;;;;;;;;;;23.17;49.55;100423.09;4319331;33;37823;-86
2022/09/04 09:33:52;;;;;;;;;;;;;;;23.29;49.48;100426.28;4341551;32;40162;-86
2022/09/04 09:36:33;;;;;;;;;;;;;;;23.28;49.43;100424.56;4364903;32;36878;-82
2022/09/04 09:39:03;;;;;;;;;;;;;;;23.09;51.18;100419.75;4372686;32;39364;-83
2022/09/04 09:41:36;;;;;;;;;;;;;;;23.08;50.78;100428.59;4370468;32;37847;-88
2022/09/04 09:44:15;;;;;;;;;;;;;;;23.42;49.88;100427.69;4367890;32;38822;-83
2022/09/04 09:46:43;;;;;;;;;;;;;;;23.36;49.81;100425.25;4361887;32;36425;-78
2022/09/04 09:49:14;;;;;;;;;;;;;;;23.54;49.33;100427.34;4369416;32;37871;-80
2022/09/04 09:51:41;;;;;;;;;;;;;;;23.51;49.52;100419.50;4370690;32;38537;-79
2022/09/04 09:54:27;;;;;;;;;;;;;;;23.62;48.81;100424.50;4363393;32;40166;-85
2022/09/04 09:56:58;;;;;;;;;;;;;;;23.56;48.90;100425.53;4342975;32;36911;-87
2022/09/04 09:59:29;;;;;;;;;;;;;;;23.32;50.29;100420.94;4324488;33;39050;-82
2022/09/04 10:01:59;;;;;;;;;;;;;;;23.48;50.65;100422.22;4322936;33;37461;-86
2022/09/04 10:04:27;;;;;;;;;;;;;;;23.40;50.52;100419.81;4328580;32;38761;-84
2022/09/04 10:07:13;;;;;;;;;;;;;;;23.45;49.58;100424.97;4354326;32;36960;-85
2022/09/04 10:09:43;;;;;;;;;;;;;;;23.58;49.16;100428.13;4353311;32;38474;-82
2022/09/04 10:12:31;;;;;;;;;;;;;;;23.48;49.35;100431.94;4353837;32;38193;-82
2022/09/04 10:15:10;;;;;;;;;;;;;;;23.31;49.77;100424.47;4353685;32;41222;-85
2022/09/04 10:17:40;;;;;;;;;;;;;;;23.41;50.21;100425.97;4352732;32;37088;-88
2022/09/04 10:20:13;;;;;;;;;;;;;;;23.44;50.05;100425.88;4353886;32;38211;-82
2022/09/04 10:23:02;;;;;;;;;;;;;;;23.31;49.88;100421.84;4354207;32;39008;-88
2022/09/04 10:25:30;;;;;;;;;;;;;;;23.07;52.16;100432.16;4354276;32;39635;-89
2022/09/04 10:28:16;;;;;;;;;;;;;;;23.24;50.85;100422.94;4340456;32;36606;-90
2022/09/04 10:31:03;;;;;;;;;;;;;;;23.02;50.74;100422.63;4355622;32;37408;-89
2022/09/04 10:33:40;;;;;;;;;;;;;;;23.19;50.54;100420.37;4353191;32;39668;-87
2022/09/04 10:36:08;;;;;;;;;;;;;;;23.23;50.55;100419.41;4354125;32;38936;-90
2022/09/04 10:41:35;;;;;;;;;;;;;;;23.15;51.77;100431.94;4346380;32;39025;-90
2022/09/04 10:44:21;;;;;;;;;;;;;;;22.90;52.43;100429.91;4337677;32;38180;-91
2022/09/04 10:46:59;;;;;;;;;;;;;;;23.00;51.20;100430.56;4344776;32;39967;-88
2022/09/04 10:49:45;;;;;;;;;;;;;;;22.86;52.91;100432.66;4329058;33;37807;-81
2022/09/04 10:52:16;;;;;;;;;;;;;;;22.96;52.38;100434.19;4350449;32;36021;-81
2022/09/04 10:54:46;;;;;;;;;;;;;;;23.10;53.37;100436.47;4350479;32;37889;-84
2022/09/04 10:57:27;;;;;;;;;;;;;;;23.00;54.71;100434.97;4353829;32;39195;-89
2022/09/04 10:59:55;;;;;;;;;;;;;;;22.91;54.33;100441.31;4353584;32;37563;-88
2022/09/04 11:02:43;;;;;;;;;;;;;;;22.93;55.76;100434.25;4353804;32;39483;-89
2022/09/04 11:05:20;;;;;;;;;;;;;;;22.95;56.02;100437.75;4354909;32;39289;-90
2022/09/04 11:07:58;;;;;;;;;;;;;;;22.87;56.77;100450.22;4353390;32;38732;-89
2022/09/04 11:10:25;;;;;;;;;;;;;;;23.15;54.91;100451.31;4351313;32;38105;-89
2022/09/04 11:13:05;;;;;;;;;;;;;;;23.24;53.77;100450.19;4355524;32;38563;-94
2022/09/04 11:15:40;;;;;;;;;;;;;;;23.26;53.29;100447.50;4353464;32;38050;-85
2022/09/04 11:18:13;;;;;;;;;;;;;;;23.55;52.91;100439.69;4355952;32;38013;-84
2022/09/04 11:20:46;;;;;;;;;;;;;;;23.68;52.64;100445.50;4352228;32;36882;-85
2022/09/04 11:23:17;;;;;;;;;;;;;;;23.86;52.39;100439.69;4355047;32;39065;-83
2022/09/04 11:25:48;;;;;;;;;;;;;;;23.77;53.83;100444.37;4353231;32;39153;-91
2022/09/04 11:28:34;;;;;;;;;;;;;;;23.88;52.35;100437.88;4353101;32;38946;-81
2022/09/04 11:31:02;;;;;;;;;;;;;;;24.16;50.17;100444.13;4354898;32;36978;-80
2022/09/04 11:33:37;;;;;;;;;;;;;;;24.03;50.42;100441.84;4352935;32;37879;-83
2022/09/04 11:36:14;;;;;;;;;;;;;;;24.02;50.20;100445.38;4346967;32;37897;-84
2022/09/04 11:39:01;;;;;;;;;;;;;;;24.07;49.80;100451.41;4351712;32;39479;-83
2022/09/04 11:42:07;;;;;;;;;;;;;;;24.33;49.21;100440.03;4351730;32;37866;-84
2022/09/04 11:44:44;;;;;;;;;;;;;;;24.04;49.76;100448.88;4353593;32;39374;-83
2022/09/04 11:47:14;;;;;;;;;;;;;;;24.17;49.76;100437.91;4338623;32;38224;-88
2022/09/04 11:50:00;;;;;;;;;;;;;;;23.92;49.67;100433.34;4352219;32;39144;-79
2022/09/04 11:52:29;;;;;;;;;;;;;;;24.10;50.53;100432.81;4353706;32;36672;-79
2022/09/04 11:55:17;;;;;;;;;;;;;;;23.92;49.83;100428.06;4353103;32;37667;-86
2022/09/04 11:57:44;;;;;;;;;;;;;;;24.22;48.70;100420.09;4352233;32;38051;-86
2022/09/04 12:00:14;;;;;;;;;;;;;;;24.16;48.26;100420.31;4346375;32;38786;-85
2022/09/04 12:02:51;;;;;;;;;;;;;;;24.11;48.59;100413.37;4350352;32;36967;-90
2022/09/04 12:05:38;;;;;;;;;;;;;;;24.20;48.51;100406.09;4345875;32;39234;-87
2022/09/04 12:08:11;;;;;;;;;;;;;;;24.42;47.97;100407.16;4363526;32;37759;-80
2022/09/04 12:10:46;;;;;;;;;;;;;;;24.16;47.27;100404.47;4343357;32;39274;-86
2022/09/04 12:13:20;;;;;;;;;;;;;;;24.34;47.66;100409.16;4346804;32;36081;-87
2022/09/04 12:15:53;;;;;;;;;;;;;;;24.57;46.96;100406.69;4343468;32;38067;-85
2022/09/04 12:18:23;;;;;;;;;;;;;;;24.80;47.00;100407.69;4346162;32;37806;-89
2022/09/04 12:21:11;;;;;;;;;;;;;;;24.82;47.56;100405.84;4347012;32;39071;-86
2022/09/04 12:23:57;;;;;;;;;;;;;;;24.85;46.72;100403.09;4343848;32;36789;-86
2022/09/04 12:26:37;;;;;;;;;;;;;;;24.77;46.33;100398.06;4343274;32;37972;-81
2022/09/04 12:29:30;;;;;;;;;;;;;;;24.70;45.66;100401.00;4354631;32;38155;-82
2022/09/04 12:32:09;;;;;;;;;;;;;;;24.80;45.35;100397.97;4289738;32;2114073;-84
2022/09/04 12:34:44;;;;;;;;;;;;;;;24.99;44.94;100408.81;4347026;32;36987;-82
2022/09/04 12:37:11;;;;;;;;;;;;;;;24.90;46.52;100402.97;4356004;32;38144;-85
2022/09/04 12:39:57;;;;;;;;;;;;;;;25.14;45.33;100403.91;4345849;32;37813;-81
2022/09/04 12:42:30;;;;;;;;;;;;;;;25.16;45.48;100400.28;4356872;32;38719;-80
2022/09/04 12:45:05;;;;;;;;;;;;;;;25.24;44.08;100394.75;4356897;32;38167;-82
2022/09/04 12:47:51;;;;;;;;;;;;;;;25.27;44.22;100391.94;4345275;32;38051;-79
2022/09/04 12:50:43;;;;;;;;;;;;;;;25.34;43.19;100388.19;4349675;32;38741;-82
2022/09/04 12:53:13;;;;;;;;;;;;;;;25.51;43.89;100385.78;4350771;32;39141;-81
2022/09/04 12:55:50;;;;;;;;;;;;;;;25.48;44.18;100388.53;4344626;32;36923;-87
2022/09/04 12:58:33;;;;;;;;;;;;;;;25.47;44.94;100389.47;4351595;32;38234;-80
2022/09/04 13:01:13;;;;;;;;;;;;;;;25.43;44.26;100386.97;4353858;32;37751;-81
2022/09/04 13:03:44;;;;;;;;;;;;;;;25.54;44.60;100389.25;4352621;32;39695;-84
2022/09/04 13:06:15;;;;;;;;;;;;;;;25.58;43.14;100385.53;4352944;32;38716;-85
2022/09/04 13:08:48;;;;;;;;;;;;;;;25.64;43.79;100380.03;4352475;32;38974;-84
2022/09/04 13:11:22;;;;;;;;;;;;;;;26.00;43.03;100377.75;4354080;32;38920;-90
2022/09/04 13:13:59;;;;;;;;;;;;;;;26.16;42.19;100378.03;4353346;32;38760;-84
2022/09/04 13:16:29;;;;;;;;;;;;;;;26.09;42.03;100373.91;4353796;32;36669;-84
2022/09/04 13:19:15;;;;;;;;;;;;;;;25.58;43.76;100364.34;4346164;32;38636;-83
2022/09/04 13:22:01;;;;;;;;;;;;;;;25.95;42.98;100362.03;4355478;32;39208;-87
2022/09/04 13:24:40;;;;;;;;;;;;;;;26.09;43.04;100365.94;4353875;32;38648;-88
2022/09/04 13:27:14;;;;;;;;;;;;;;;25.87;42.23;100363.25;4351807;32;38294;-85
2022/09/04 13:29:41;;;;;;;;;;;;;;;25.79;43.96;100358.22;4353128;32;39135;-89
2022/09/04 13:32:11;;;;;;;;;;;;;;;25.84;43.49;100361.59;4346674;32;38886;-94